William J. Weber — WDC6537 — position and weather

sailwx.info

Track history (hours):
 
Tides and Currents Weather Stations Pressure Air Temp Water Temp Dewpoint Dewpoint Depression Visibility Wind Speed Wind Dir Waves Ship Positions

William J. Weber

Owner: American Commercial Lines LLC, Jeffersonville, IN. More information available from US FCC via Universal Licensing System and Coast Guard Vessel Documentation Center.

Last reported at 2016-Jun-26 05:33 UTC. Time now 2016-Sep-25 05:33 UTC.
Position N 32°45' W 091°09'.
Warning: this ship's position is months out of date.

Length 23 m; draft 3 m.

Type: Towing. MMSI: 367057640.

Date/timePositionNaut miles runAvg speedWind from/ knotsBaromVisibWave heightAir tempDewpointWater temp
2016-Jun-26 05:33N 32°45' W 091°09'5 1.5
2016-Jun-26 02:23N 32°40' W 091°08'3 3.5
2016-Jun-26 01:33N 32°37' W 091°09'4 3.9
2016-Jun-26 00:33N 32°34' W 091°06'4 4.2
2016-Jun-25 23:33N 32°30' W 091°07'4 4.3
2016-Jun-25 22:33N 32°27' W 091°04'4 4.2
2016-Jun-25 21:33N 32°24' W 090°60'3 3.4
2016-Jun-25 20:33N 32°21' W 090°59'4 4.4
2016-Jun-25 19:33N 32°20' W 090°54'4 4.5
2016-Jun-25 18:33N 32°16' W 090°58'4 4.3
2016-Jun-25 17:33N 32°12' W 090°59'4 4.4
2016-Jun-25 16:33N 32°08' W 091°00'4 3.1
2016-Jun-25 15:14N 32°08' W 091°05'6 3.4
2016-Jun-25 13:26N 32°02' W 091°04'  
2016-Jun-20 18:33N 29°47' W 091°49'7 3.3
2016-Jun-20 16:33N 29°51' W 091°55'4 4.4
2016-Jun-20 15:33N 29°50' W 092°00'4 4.4
2016-Jun-20 14:34N 29°48' W 092°05'5 4.5
2016-Jun-20 13:33N 29°47' W 092°10'1 0.9
2016-Jun-20 12:33N 29°47' W 092°11'0 0.0
2016-Jun-20 11:33N 29°47' W 092°11'3 3.0
2016-Jun-20 10:33N 29°48' W 092°14'4 3.8
2016-Jun-20 09:33N 29°50' W 092°18'4 3.8
2016-Jun-20 08:32N 29°51' W 092°22'4 3.8
2016-Jun-20 07:33N 29°53' W 092°26'17 4.2
2016-Jun-20 03:31N 29°58' W 092°45'10 3.3
2016-Jun-20 00:20N 29°56' W 092°57'3 3.7
2016-Jun-19 23:33N 29°56' W 092°60'4 3.9
2016-Jun-19 22:33N 29°56' W 093°04'1 0.7
2016-Jun-19 21:33N 29°56' W 093°05'0 0.0
2016-Jun-19 20:33N 29°56' W 093°05'0 0.2
2016-Jun-19 19:33N 29°56' W 093°05'1 0.9
2016-Jun-19 18:33N 29°56' W 093°06'3 2.5
2016-Jun-19 17:33N 29°56' W 093°09'3 3.5
2016-Jun-19 16:33N 29°59' W 093°12'3 3.4
2016-Jun-19 15:33N 30°01' W 093°14'3 3.3
2016-Jun-19 14:33N 30°04' W 093°16'2 2.3
2016-Jun-19 13:33N 30°06' W 093°18'1 0.6
2016-Jun-19 12:33N 30°06' W 093°19'0 0.0
2016-Jun-19 11:33N 30°06' W 093°19'0 0.0
2016-Jun-19 10:33N 30°06' W 093°19'0 0.0
2016-Jun-19 09:33N 30°06' W 093°19'0 0.0
2016-Jun-19 08:33N 30°06' W 093°19'0 0.0
2016-Jun-19 07:32N 30°06' W 093°19'0 0.0
2016-Jun-19 06:33N 30°06' W 093°19'0 0.0
2016-Jun-19 05:33N 30°06' W 093°19'0 0.4
2016-Jun-19 04:33N 30°06' W 093°19'3 3.5
2016-Jun-19 03:33N 30°04' W 093°22'1 0.9
2016-Jun-19 02:08N 30°04' W 093°23'1 1.0
2016-Jun-19 01:33N 30°04' W 093°24'3 2.9
2016-Jun-19 00:33N 30°04' W 093°28'4 3.9
2016-Jun-18 23:33N 30°04' W 093°32'4 3.7
2016-Jun-18 22:33N 30°04' W 093°36'4 4.3
2016-Jun-18 21:33N 30°03' W 093°41'4 3.8
2016-Jun-18 20:33N 30°01' W 093°45'4 4.4
2016-Jun-18 19:33N 29°59' W 093°49'4 2.7
2016-Jun-18 18:04N 29°56' W 093°52'0 0.0
2016-Jun-18 17:32N 29°56' W 093°52'0 0.0
2016-Jun-18 16:26N 29°56' W 093°52'11 3.3
2016-Jun-18 13:05N 29°48' W 094°01'2 4.1
2016-Jun-18 12:28N 29°46' W 094°03'4 4.1
2016-Jun-18 11:32N 29°44' W 094°06'5 3.9
2016-Jun-18 10:08N 29°41' W 094°12'2 3.2
2016-Jun-18 09:28N 29°40' W 094°14'3 3.4
2016-Jun-18 08:32N 29°39' W 094°17'3 2.9
2016-Jun-18 07:21N 29°37' W 094°21'11 3.5
2016-Jun-18 04:11N 29°31' W 094°31'1 1.6
2016-Jun-18 03:31N 29°30' W 094°32'3 0.7
2016-Jun-17 23:31N 29°32' W 094°29'23 4.4
2016-Jun-17 18:22N 29°43' W 094°07'6 5.2
2016-Jun-17 17:16N 29°47' W 094°02'5 4.8
2016-Jun-17 16:18N 29°50' W 093°57'5 7.0
2016-Jun-17 15:32N 29°54' W 093°54'8 2.0
2016-Jun-17 11:33N 30°01' W 093°59'0 0.0
2016-Jun-17 10:31N 30°01' W 093°59'0 0.0
2016-Jun-17 06:32N 30°01' W 093°59'0 0.0
2016-Jun-17 04:29N 30°01' W 093°59'0 0.0
2016-Jun-17 03:33N 30°01' W 093°59'0 0.0
2016-Jun-17 02:23N 30°01' W 093°59'0 0.0
2016-Jun-17 01:29N 30°01' W 093°59'0 0.0
2016-Jun-16 19:31N 30°01' W 093°59'1 0.1
2016-Jun-16 14:30N 30°01' W 093°59'0 0.0
2016-Jun-16 13:29N 30°01' W 093°59'0 0.0
2016-Jun-16 12:16N 30°01' W 093°59'0 0.0
2016-Jun-16 11:19N 30°01' W 093°59'0 0.0
2016-Jun-16 10:33N 30°01' W 093°59'0 0.0
2016-Jun-16 07:11N 30°01' W 093°59'  
Track history (hours):
 
Tides and Currents Weather Stations Pressure Air Temp Water Temp Dewpoint Dewpoint Depression Visibility Wind Speed Wind Dir Waves Ship Positions

William J. Weber

Owner: American Commercial Lines LLC, Jeffersonville, IN. More information available from US FCC via Universal Licensing System and Coast Guard Vessel Documentation Center.

Last reported at 2016-Jun-26 05:33 UTC. Time now 2016-Sep-25 05:33 UTC.
Position N 32°45' W 091°09'.
Warning: this ship's position is months out of date.

Length 23 m; draft 3 m.

Type: Towing. MMSI: 367057640.

Date/timePositionNaut miles runAvg speedWind from/ knotsBaromVisibWave heightAir tempDewpointWater temp
2016-Jun-26 05:33N 32°45' W 091°09'5 1.5
2016-Jun-26 02:23N 32°40' W 091°08'3 3.5
2016-Jun-26 01:33N 32°37' W 091°09'4 3.9
2016-Jun-26 00:33N 32°34' W 091°06'4 4.2
2016-Jun-25 23:33N 32°30' W 091°07'4 4.3
2016-Jun-25 22:33N 32°27' W 091°04'4 4.2
2016-Jun-25 21:33N 32°24' W 090°60'3 3.4
2016-Jun-25 20:33N 32°21' W 090°59'4 4.4
2016-Jun-25 19:33N 32°20' W 090°54'4 4.5
2016-Jun-25 18:33N 32°16' W 090°58'4 4.3
2016-Jun-25 17:33N 32°12' W 090°59'4 4.4
2016-Jun-25 16:33N 32°08' W 091°00'4 3.1
2016-Jun-25 15:14N 32°08' W 091°05'6 3.4
2016-Jun-25 13:26N 32°02' W 091°04'  
2016-Jun-20 18:33N 29°47' W 091°49'7 3.3
2016-Jun-20 16:33N 29°51' W 091°55'4 4.4
2016-Jun-20 15:33N 29°50' W 092°00'4 4.4
2016-Jun-20 14:34N 29°48' W 092°05'5 4.5
2016-Jun-20 13:33N 29°47' W 092°10'1 0.9
2016-Jun-20 12:33N 29°47' W 092°11'0 0.0
2016-Jun-20 11:33N 29°47' W 092°11'3 3.0
2016-Jun-20 10:33N 29°48' W 092°14'4 3.8
2016-Jun-20 09:33N 29°50' W 092°18'4 3.8
2016-Jun-20 08:32N 29°51' W 092°22'4 3.8
2016-Jun-20 07:33N 29°53' W 092°26'17 4.2
2016-Jun-20 03:31N 29°58' W 092°45'10 3.3
2016-Jun-20 00:20N 29°56' W 092°57'3 3.7
2016-Jun-19 23:33N 29°56' W 092°60'4 3.9
2016-Jun-19 22:33N 29°56' W 093°04'1 0.7
2016-Jun-19 21:33N 29°56' W 093°05'0 0.0
2016-Jun-19 20:33N 29°56' W 093°05'0 0.2
2016-Jun-19 19:33N 29°56' W 093°05'1 0.9
2016-Jun-19 18:33N 29°56' W 093°06'3 2.5
2016-Jun-19 17:33N 29°56' W 093°09'3 3.5
2016-Jun-19 16:33N 29°59' W 093°12'3 3.4
2016-Jun-19 15:33N 30°01' W 093°14'3 3.3
2016-Jun-19 14:33N 30°04' W 093°16'2 2.3
2016-Jun-19 13:33N 30°06' W 093°18'1 0.6
2016-Jun-19 12:33N 30°06' W 093°19'0 0.0
2016-Jun-19 11:33N 30°06' W 093°19'0 0.0
2016-Jun-19 10:33N 30°06' W 093°19'0 0.0
2016-Jun-19 09:33N 30°06' W 093°19'0 0.0
2016-Jun-19 08:33N 30°06' W 093°19'0 0.0
2016-Jun-19 07:32N 30°06' W 093°19'0 0.0
2016-Jun-19 06:33N 30°06' W 093°19'0 0.0
2016-Jun-19 05:33N 30°06' W 093°19'0 0.4
2016-Jun-19 04:33N 30°06' W 093°19'3 3.5
2016-Jun-19 03:33N 30°04' W 093°22'1 0.9
2016-Jun-19 02:08N 30°04' W 093°23'1 1.0
2016-Jun-19 01:33N 30°04' W 093°24'3 2.9
2016-Jun-19 00:33N 30°04' W 093°28'4 3.9
2016-Jun-18 23:33N 30°04' W 093°32'4 3.7
2016-Jun-18 22:33N 30°04' W 093°36'4 4.3
2016-Jun-18 21:33N 30°03' W 093°41'4 3.8
2016-Jun-18 20:33N 30°01' W 093°45'4 4.4
2016-Jun-18 19:33N 29°59' W 093°49'4 2.7
2016-Jun-18 18:04N 29°56' W 093°52'0 0.0
2016-Jun-18 17:32N 29°56' W 093°52'0 0.0
2016-Jun-18 16:26N 29°56' W 093°52'11 3.3
2016-Jun-18 13:05N 29°48' W 094°01'2 4.1
2016-Jun-18 12:28N 29°46' W 094°03'4 4.1
2016-Jun-18 11:32N 29°44' W 094°06'5 3.9
2016-Jun-18 10:08N 29°41' W 094°12'2 3.2
2016-Jun-18 09:28N 29°40' W 094°14'3 3.4
2016-Jun-18 08:32N 29°39' W 094°17'3 2.9
2016-Jun-18 07:21N 29°37' W 094°21'11 3.5
2016-Jun-18 04:11N 29°31' W 094°31'1 1.6
2016-Jun-18 03:31N 29°30' W 094°32'3 0.7
2016-Jun-17 23:31N 29°32' W 094°29'23 4.4
2016-Jun-17 18:22N 29°43' W 094°07'6 5.2
2016-Jun-17 17:16N 29°47' W 094°02'5 4.8
2016-Jun-17 16:18N 29°50' W 093°57'5 7.0
2016-Jun-17 15:32N 29°54' W 093°54'8 2.0
2016-Jun-17 11:33N 30°01' W 093°59'0 0.0
2016-Jun-17 10:31N 30°01' W 093°59'0 0.0
2016-Jun-17 06:32N 30°01' W 093°59'0 0.0
2016-Jun-17 04:29N 30°01' W 093°59'0 0.0
2016-Jun-17 03:33N 30°01' W 093°59'0 0.0
2016-Jun-17 02:23N 30°01' W 093°59'0 0.0
2016-Jun-17 01:29N 30°01' W 093°59'0 0.0
2016-Jun-16 19:31N 30°01' W 093°59'1 0.1
2016-Jun-16 14:30N 30°01' W 093°59'0 0.0
2016-Jun-16 13:29N 30°01' W 093°59'0 0.0
2016-Jun-16 12:16N 30°01' W 093°59'0 0.0
2016-Jun-16 11:19N 30°01' W 093°59'0 0.0
2016-Jun-16 10:33N 30°01' W 093°59'0 0.0
2016-Jun-16 07:11N 30°01' W 093°59'  

Dump ship's entire track history